sensor_id;sensor_type;location;lat;lon;timestamp;P1;durP1;ratioP1;P2;durP2;ratioP2
58017;SDS011;43810;50.860;19.226;2022-09-02T00:00:58;6.00;;;2.67;;
58017;SDS011;43810;50.860;19.226;2022-09-02T00:03:28;7.70;;;3.15;;
58017;SDS011;43810;50.860;19.226;2022-09-02T00:05:54;6.72;;;2.90;;
58017;SDS011;43810;50.860;19.226;2022-09-02T00:08:20;4.72;;;2.80;;
58017;SDS011;43810;50.860;19.226;2022-09-02T00:10:45;4.93;;;3.05;;
58017;SDS011;43810;50.860;19.226;2022-09-02T00:13:13;7.10;;;3.38;;
58017;SDS011;43810;50.860;19.226;2022-09-02T00:15:39;4.60;;;3.30;;
58017;SDS011;43810;50.860;19.226;2022-09-02T00:18:05;4.90;;;3.60;;
58017;SDS011;43810;50.860;19.226;2022-09-02T00:20:31;4.28;;;3.08;;
58017;SDS011;43810;50.860;19.226;2022-09-02T00:22:57;5.13;;;2.97;;
58017;SDS011;43810;50.860;19.226;2022-09-02T00:25:22;4.22;;;2.97;;
58017;SDS011;43810;50.860;19.226;2022-09-02T00:27:48;5.13;;;3.17;;
58017;SDS011;43810;50.860;19.226;2022-09-02T00:30:14;5.82;;;3.28;;
58017;SDS011;43810;50.860;19.226;2022-09-02T00:32:39;3.95;;;3.13;;
58017;SDS011;43810;50.860;19.226;2022-09-02T00:35:06;6.63;;;3.35;;
58017;SDS011;43810;50.860;19.226;2022-09-02T00:37:31;9.32;;;3.28;;
58017;SDS011;43810;50.860;19.226;2022-09-02T00:39:57;6.95;;;3.10;;
58017;SDS011;43810;50.860;19.226;2022-09-02T00:42:23;7.20;;;2.83;;
58017;SDS011;43810;50.860;19.226;2022-09-02T00:44:49;6.05;;;2.90;;
58017;SDS011;43810;50.860;19.226;2022-09-02T00:47:14;6.35;;;3.70;;
58017;SDS011;43810;50.860;19.226;2022-09-02T00:49:41;8.63;;;3.40;;
58017;SDS011;43810;50.860;19.226;2022-09-02T00:52:12;4.80;;;3.47;;
58017;SDS011;43810;50.860;19.226;2022-09-02T00:54:38;6.93;;;3.30;;
58017;SDS011;43810;50.860;19.226;2022-09-02T00:57:09;5.28;;;3.53;;
58017;SDS011;43810;50.860;19.226;2022-09-02T00:59:47;8.65;;;4.38;;
58017;SDS011;43810;50.860;19.226;2022-09-02T01:02:14;7.95;;;4.07;;
58017;SDS011;43810;50.860;19.226;2022-09-02T01:04:40;5.88;;;3.90;;
58017;SDS011;43810;50.860;19.226;2022-09-02T01:07:07;7.05;;;4.22;;
58017;SDS011;43810;50.860;19.226;2022-09-02T01:09:33;7.13;;;3.92;;
58017;SDS011;43810;50.860;19.226;2022-09-02T01:12:00;5.07;;;3.47;;
58017;SDS011;43810;50.860;19.226;2022-09-02T01:14:28;5.68;;;3.35;;
58017;SDS011;43810;50.860;19.226;2022-09-02T01:16:55;8.30;;;4.07;;
58017;SDS011;43810;50.860;19.226;2022-09-02T01:19:25;5.07;;;3.90;;
58017;SDS011;43810;50.860;19.226;2022-09-02T01:21:54;5.65;;;3.55;;
58017;SDS011;43810;50.860;19.226;2022-09-02T01:24:22;6.88;;;3.80;;
58017;SDS011;43810;50.860;19.226;2022-09-02T01:26:51;6.53;;;3.72;;
58017;SDS011;43810;50.860;19.226;2022-09-02T01:29:16;6.82;;;3.95;;
58017;SDS011;43810;50.860;19.226;2022-09-02T01:31:42;8.32;;;3.80;;
58017;SDS011;43810;50.860;19.226;2022-09-02T01:34:08;8.02;;;3.92;;
58017;SDS011;43810;50.860;19.226;2022-09-02T01:36:36;8.35;;;4.15;;
58017;SDS011;43810;50.860;19.226;2022-09-02T01:39:02;7.30;;;4.25;;
58017;SDS011;43810;50.860;19.226;2022-09-02T01:41:28;6.25;;;4.40;;
58017;SDS011;43810;50.860;19.226;2022-09-02T01:43:53;8.00;;;4.28;;
58017;SDS011;43810;50.860;19.226;2022-09-02T01:46:21;7.60;;;3.70;;
58017;SDS011;43810;50.860;19.226;2022-09-02T01:48:48;8.02;;;4.50;;
58017;SDS011;43810;50.860;19.226;2022-09-02T01:51:15;11.00;;;4.93;;
58017;SDS011;43810;50.860;19.226;2022-09-02T01:53:41;5.97;;;3.97;;
58017;SDS011;43810;50.860;19.226;2022-09-02T01:56:07;8.63;;;4.03;;
58017;SDS011;43810;50.860;19.226;2022-09-02T01:58:32;4.82;;;3.70;;
58017;SDS011;43810;50.860;19.226;2022-09-02T02:00:58;4.40;;;3.65;;
58017;SDS011;43810;50.860;19.226;2022-09-02T02:03:23;5.90;;;4.15;;
58017;SDS011;43810;50.860;19.226;2022-09-02T02:05:49;6.25;;;4.35;;
58017;SDS011;43810;50.860;19.226;2022-09-02T02:08:15;5.75;;;4.10;;
58017;SDS011;43810;50.860;19.226;2022-09-02T02:10:40;6.72;;;4.15;;
58017;SDS011;43810;50.860;19.226;2022-09-02T02:13:07;5.88;;;3.95;;
58017;SDS011;43810;50.860;19.226;2022-09-02T02:15:35;4.80;;;3.67;;
58017;SDS011;43810;50.860;19.226;2022-09-02T02:18:00;4.50;;;4.00;;
58017;SDS011;43810;50.860;19.226;2022-09-02T02:20:26;5.90;;;3.80;;
58017;SDS011;43810;50.860;19.226;2022-09-02T02:22:52;5.95;;;4.07;;
58017;SDS011;43810;50.860;19.226;2022-09-02T02:25:18;6.97;;;4.20;;
58017;SDS011;43810;50.860;19.226;2022-09-02T02:27:43;7.75;;;3.83;;
58017;SDS011;43810;50.860;19.226;2022-09-02T02:30:10;9.85;;;4.38;;
58017;SDS011;43810;50.860;19.226;2022-09-02T02:32:36;5.32;;;3.70;;
58017;SDS011;43810;50.860;19.226;2022-09-02T02:35:02;5.70;;;3.65;;
58017;SDS011;43810;50.860;19.226;2022-09-02T02:37:28;6.07;;;3.80;;
58017;SDS011;43810;50.860;19.226;2022-09-02T02:39:54;8.40;;;4.35;;
58017;SDS011;43810;50.860;19.226;2022-09-02T02:42:20;6.20;;;4.50;;
58017;SDS011;43810;50.860;19.226;2022-09-02T02:44:46;6.25;;;4.43;;
58017;SDS011;43810;50.860;19.226;2022-09-02T02:47:11;9.88;;;4.80;;
58017;SDS011;43810;50.860;19.226;2022-09-02T02:49:40;7.50;;;5.00;;
58017;SDS011;43810;50.860;19.226;2022-09-02T02:52:07;5.43;;;3.97;;
58017;SDS011;43810;50.860;19.226;2022-09-02T02:54:33;8.43;;;4.75;;
58017;SDS011;43810;50.860;19.226;2022-09-02T02:56:59;5.45;;;4.10;;
58017;SDS011;43810;50.860;19.226;2022-09-02T02:59:24;8.10;;;4.30;;
58017;SDS011;43810;50.860;19.226;2022-09-02T03:01:50;7.43;;;4.18;;
58017;SDS011;43810;50.860;19.226;2022-09-02T03:04:16;7.22;;;4.40;;
58017;SDS011;43810;50.860;19.226;2022-09-02T03:06:41;5.75;;;4.07;;
58017;SDS011;43810;50.860;19.226;2022-09-02T03:09:07;6.72;;;4.03;;
58017;SDS011;43810;50.860;19.226;2022-09-02T03:11:32;7.10;;;4.45;;
58017;SDS011;43810;50.860;19.226;2022-09-02T03:13:58;7.63;;;4.82;;
58017;SDS011;43810;50.860;19.226;2022-09-02T03:16:23;7.97;;;4.50;;
58017;SDS011;43810;50.860;19.226;2022-09-02T03:18:49;8.82;;;4.38;;
58017;SDS011;43810;50.860;19.226;2022-09-02T03:21:15;4.82;;;4.07;;
58017;SDS011;43810;50.860;19.226;2022-09-02T03:23:42;5.82;;;4.15;;
58017;SDS011;43810;50.860;19.226;2022-09-02T03:26:11;5.88;;;4.25;;
58017;SDS011;43810;50.860;19.226;2022-09-02T03:28:37;6.00;;;4.32;;
58017;SDS011;43810;50.860;19.226;2022-09-02T03:31:03;6.20;;;3.67;;
58017;SDS011;43810;50.860;19.226;2022-09-02T03:33:29;5.43;;;4.05;;
58017;SDS011;43810;50.860;19.226;2022-09-02T03:35:55;5.40;;;3.80;;
58017;SDS011;43810;50.860;19.226;2022-09-02T03:38:21;8.05;;;4.97;;
58017;SDS011;43810;50.860;19.226;2022-09-02T03:40:46;7.65;;;4.65;;
58017;SDS011;43810;50.860;19.226;2022-09-02T03:43:12;8.23;;;4.95;;
58017;SDS011;43810;50.860;19.226;2022-09-02T03:45:39;7.95;;;4.60;;
58017;SDS011;43810;50.860;19.226;2022-09-02T03:48:06;8.43;;;5.13;;
58017;SDS011;43810;50.860;19.226;2022-09-02T03:50:34;9.52;;;4.72;;
58017;SDS011;43810;50.860;19.226;2022-09-02T03:53:00;10.45;;;5.00;;
58017;SDS011;43810;50.860;19.226;2022-09-02T03:55:26;7.55;;;4.15;;
58017;SDS011;43810;50.860;19.226;2022-09-02T03:57:52;10.77;;;4.95;;
58017;SDS011;43810;50.860;19.226;2022-09-02T04:00:19;6.57;;;4.32;;
58017;SDS011;43810;50.860;19.226;2022-09-02T04:02:45;6.75;;;4.15;;
58017;SDS011;43810;50.860;19.226;2022-09-02T04:05:11;8.35;;;5.00;;
58017;SDS011;43810;50.860;19.226;2022-09-02T04:07:38;9.88;;;5.43;;
58017;SDS011;43810;50.860;19.226;2022-09-02T04:10:04;15.30;;;5.82;;
58017;SDS011;43810;50.860;19.226;2022-09-02T04:12:29;8.45;;;4.97;;
58017;SDS011;43810;50.860;19.226;2022-09-02T04:14:55;14.50;;;5.47;;
58017;SDS011;43810;50.860;19.226;2022-09-02T04:17:20;13.73;;;5.57;;
58017;SDS011;43810;50.860;19.226;2022-09-02T04:19:46;24.67;;;6.35;;
58017;SDS011;43810;50.860;19.226;2022-09-02T04:22:11;11.32;;;5.22;;
58017;SDS011;43810;50.860;19.226;2022-09-02T04:24:37;16.08;;;6.55;;
58017;SDS011;43810;50.860;19.226;2022-09-02T04:27:03;16.67;;;6.03;;
58017;SDS011;43810;50.860;19.226;2022-09-02T04:29:28;10.35;;;5.53;;
58017;SDS011;43810;50.860;19.226;2022-09-02T04:31:55;13.98;;;7.07;;
58017;SDS011;43810;50.860;19.226;2022-09-02T04:34:21;13.45;;;6.78;;
58017;SDS011;43810;50.860;19.226;2022-09-02T04:36:47;16.17;;;7.75;;
58017;SDS011;43810;50.860;19.226;2022-09-02T04:39:12;15.80;;;8.90;;
58017;SDS011;43810;50.860;19.226;2022-09-02T04:41:38;14.90;;;7.63;;
58017;SDS011;43810;50.860;19.226;2022-09-02T04:44:04;16.52;;;8.48;;
58017;SDS011;43810;50.860;19.226;2022-09-02T04:46:30;23.00;;;9.23;;
58017;SDS011;43810;50.860;19.226;2022-09-02T04:48:56;15.32;;;7.53;;
58017;SDS011;43810;50.860;19.226;2022-09-02T04:51:22;13.10;;;8.15;;
58017;SDS011;43810;50.860;19.226;2022-09-02T04:53:48;16.38;;;8.15;;
58017;SDS011;43810;50.860;19.226;2022-09-02T04:56:16;15.68;;;8.20;;
58017;SDS011;43810;50.860;19.226;2022-09-02T04:58:42;11.70;;;7.72;;
58017;SDS011;43810;50.860;19.226;2022-09-02T05:01:09;9.52;;;6.50;;
58017;SDS011;43810;50.860;19.226;2022-09-02T05:03:36;11.30;;;6.20;;
58017;SDS011;43810;50.860;19.226;2022-09-02T05:06:02;10.38;;;6.05;;
58017;SDS011;43810;50.860;19.226;2022-09-02T05:08:28;12.40;;;5.82;;
58017;SDS011;43810;50.860;19.226;2022-09-02T05:10:54;8.55;;;5.15;;
58017;SDS011;43810;50.860;19.226;2022-09-02T05:13:20;10.88;;;4.95;;
58017;SDS011;43810;50.860;19.226;2022-09-02T05:15:45;8.10;;;5.15;;
58017;SDS011;43810;50.860;19.226;2022-09-02T05:18:11;7.22;;;4.15;;
58017;SDS011;43810;50.860;19.226;2022-09-02T05:20:40;6.65;;;4.57;;
58017;SDS011;43810;50.860;19.226;2022-09-02T05:23:08;7.85;;;4.13;;
58017;SDS011;43810;50.860;19.226;2022-09-02T05:25:35;5.50;;;3.88;;
58017;SDS011;43810;50.860;19.226;2022-09-02T05:28:01;6.40;;;3.88;;
58017;SDS011;43810;50.860;19.226;2022-09-02T05:30:27;5.50;;;4.00;;
58017;SDS011;43810;50.860;19.226;2022-09-02T05:32:52;5.05;;;3.25;;
58017;SDS011;43810;50.860;19.226;2022-09-02T05:35:18;16.35;;;4.03;;
58017;SDS011;43810;50.860;19.226;2022-09-02T05:37:43;5.22;;;3.35;;
58017;SDS011;43810;50.860;19.226;2022-09-02T05:40:09;7.65;;;3.50;;
58017;SDS011;43810;50.860;19.226;2022-09-02T05:42:37;6.05;;;3.03;;
58017;SDS011;43810;50.860;19.226;2022-09-02T05:45:03;4.55;;;3.10;;
58017;SDS011;43810;50.860;19.226;2022-09-02T05:47:29;6.70;;;2.83;;
58017;SDS011;43810;50.860;19.226;2022-09-02T05:49:54;4.75;;;3.55;;
58017;SDS011;43810;50.860;19.226;2022-09-02T05:52:20;5.18;;;3.20;;
58017;SDS011;43810;50.860;19.226;2022-09-02T05:54:46;5.07;;;3.05;;
58017;SDS011;43810;50.860;19.226;2022-09-02T05:57:14;4.97;;;2.58;;
58017;SDS011;43810;50.860;19.226;2022-09-02T05:59:40;8.07;;;3.13;;
58017;SDS011;43810;50.860;19.226;2022-09-02T06:02:07;7.47;;;2.45;;
58017;SDS011;43810;50.860;19.226;2022-09-02T06:04:47;4.60;;;2.60;;
58017;SDS011;43810;50.860;19.226;2022-09-02T06:07:14;5.50;;;3.20;;
58017;SDS011;43810;50.860;19.226;2022-09-02T06:09:49;7.80;;;3.20;;
58017;SDS011;43810;50.860;19.226;2022-09-02T06:12:16;4.22;;;2.60;;
58017;SDS011;43810;50.860;19.226;2022-09-02T06:14:44;5.20;;;2.95;;
58017;SDS011;43810;50.860;19.226;2022-09-02T06:17:10;5.70;;;2.50;;
58017;SDS011;43810;50.860;19.226;2022-09-02T06:19:35;4.68;;;2.85;;
58017;SDS011;43810;50.860;19.226;2022-09-02T06:22:02;3.42;;;3.03;;
58017;SDS011;43810;50.860;19.226;2022-09-02T06:24:29;10.25;;;3.15;;
58017;SDS011;43810;50.860;19.226;2022-09-02T06:26:55;8.38;;;2.88;;
58017;SDS011;43810;50.860;19.226;2022-09-02T06:29:22;4.97;;;2.60;;
58017;SDS011;43810;50.860;19.226;2022-09-02T06:31:48;3.45;;;2.30;;
58017;SDS011;43810;50.860;19.226;2022-09-02T06:34:14;12.90;;;2.95;;
58017;SDS011;43810;50.860;19.226;2022-09-02T06:36:41;2.72;;;2.10;;
58017;SDS011;43810;50.860;19.226;2022-09-02T06:39:08;7.30;;;2.35;;
58017;SDS011;43810;50.860;19.226;2022-09-02T06:41:34;5.28;;;2.17;;
58017;SDS011;43810;50.860;19.226;2022-09-02T06:44:02;9.13;;;2.55;;
58017;SDS011;43810;50.860;19.226;2022-09-02T06:46:32;4.60;;;2.40;;
58017;SDS011;43810;50.860;19.226;2022-09-02T06:48:58;3.58;;;1.90;;
58017;SDS011;43810;50.860;19.226;2022-09-02T06:51:30;3.15;;;2.00;;
58017;SDS011;43810;50.860;19.226;2022-09-02T06:53:56;5.28;;;2.00;;
58017;SDS011;43810;50.860;19.226;2022-09-02T06:56:22;5.00;;;2.38;;
58017;SDS011;43810;50.860;19.226;2022-09-02T06:58:48;3.28;;;1.80;;
58017;SDS011;43810;50.860;19.226;2022-09-02T07:01:20;4.13;;;1.88;;
58017;SDS011;43810;50.860;19.226;2022-09-02T07:03:46;3.45;;;1.83;;
58017;SDS011;43810;50.860;19.226;2022-09-02T07:08:59;6.55;;;2.05;;
58017;SDS011;43810;50.860;19.226;2022-09-02T07:11:25;3.13;;;1.90;;
58017;SDS011;43810;50.860;19.226;2022-09-02T07:13:50;5.28;;;2.85;;
58017;SDS011;43810;50.860;19.226;2022-09-02T07:16:16;2.05;;;1.77;;
58017;SDS011;43810;50.860;19.226;2022-09-02T07:18:42;2.75;;;2.00;;
58017;SDS011;43810;50.860;19.226;2022-09-02T07:21:08;4.88;;;1.88;;
58017;SDS011;43810;50.860;19.226;2022-09-02T07:23:34;3.15;;;1.80;;
58017;SDS011;43810;50.860;19.226;2022-09-02T07:26:00;5.68;;;1.88;;
58017;SDS011;43810;50.860;19.226;2022-09-02T07:28:25;4.10;;;1.50;;
58017;SDS011;43810;50.860;19.226;2022-09-02T07:30:52;3.22;;;1.90;;
58017;SDS011;43810;50.860;19.226;2022-09-02T07:33:19;2.72;;;1.63;;
58017;SDS011;43810;50.860;19.226;2022-09-02T07:35:45;1.95;;;1.50;;
58017;SDS011;43810;50.860;19.226;2022-09-02T07:38:11;2.70;;;1.80;;
58017;SDS011;43810;50.860;19.226;2022-09-02T07:40:38;5.07;;;1.33;;
58017;SDS011;43810;50.860;19.226;2022-09-02T07:43:04;2.97;;;1.63;;
58017;SDS011;43810;50.860;19.226;2022-09-02T07:45:30;2.17;;;1.48;;
58017;SDS011;43810;50.860;19.226;2022-09-02T07:47:56;3.60;;;1.33;;
58017;SDS011;43810;50.860;19.226;2022-09-02T07:50:21;1.40;;;1.20;;
58017;SDS011;43810;50.860;19.226;2022-09-02T07:52:49;2.22;;;1.38;;
58017;SDS011;43810;50.860;19.226;2022-09-02T07:55:15;2.63;;;1.67;;
58017;SDS011;43810;50.860;19.226;2022-09-02T07:57:40;3.08;;;0.80;;
58017;SDS011;43810;50.860;19.226;2022-09-02T08:00:06;2.67;;;1.00;;
58017;SDS011;43810;50.860;19.226;2022-09-02T08:02:32;1.20;;;1.08;;
58017;SDS011;43810;50.860;19.226;2022-09-02T08:04:58;1.08;;;1.00;;
58017;SDS011;43810;50.860;19.226;2022-09-02T08:07:24;2.08;;;1.10;;
58017;SDS011;43810;50.860;19.226;2022-09-02T08:09:52;2.20;;;1.20;;
58017;SDS011;43810;50.860;19.226;2022-09-02T08:12:18;4.10;;;1.20;;
58017;SDS011;43810;50.860;19.226;2022-09-02T08:14:43;12.77;;;2.10;;
58017;SDS011;43810;50.860;19.226;2022-09-02T08:17:09;2.72;;;1.25;;
58017;SDS011;43810;50.860;19.226;2022-09-02T08:19:34;8.52;;;1.20;;
58017;SDS011;43810;50.860;19.226;2022-09-02T08:22:03;2.15;;;0.80;;
58017;SDS011;43810;50.860;19.226;2022-09-02T08:24:30;1.25;;;1.10;;
58017;SDS011;43810;50.860;19.226;2022-09-02T08:26:57;1.98;;;1.05;;
58017;SDS011;43810;50.860;19.226;2022-09-02T08:29:22;1.10;;;1.00;;
58017;SDS011;43810;50.860;19.226;2022-09-02T08:31:48;2.05;;;0.95;;
58017;SDS011;43810;50.860;19.226;2022-09-02T08:34:13;9.10;;;1.95;;
58017;SDS011;43810;50.860;19.226;2022-09-02T08:36:39;3.42;;;0.80;;
58017;SDS011;43810;50.860;19.226;2022-09-02T08:39:08;2.97;;;0.85;;
58017;SDS011;43810;50.860;19.226;2022-09-02T08:44:19;2.60;;;0.80;;
58017;SDS011;43810;50.860;19.226;2022-09-02T08:46:45;2.28;;;1.00;;
58017;SDS011;43810;50.860;19.226;2022-09-02T08:49:18;4.90;;;1.20;;
58017;SDS011;43810;50.860;19.226;2022-09-02T08:51:50;1.15;;;0.80;;
58017;SDS011;43810;50.860;19.226;2022-09-02T08:57:01;1.42;;;0.65;;
58017;SDS011;43810;50.860;19.226;2022-09-02T08:59:26;6.80;;;0.77;;
58017;SDS011;43810;50.860;19.226;2022-09-02T09:09:58;1.33;;;0.50;;
58017;SDS011;43810;50.860;19.226;2022-09-02T09:15:01;0.70;;;0.40;;
58017;SDS011;43810;50.860;19.226;2022-09-02T09:17:30;2.33;;;0.75;;
58017;SDS011;43810;50.860;19.226;2022-09-02T09:19:58;2.42;;;0.70;;
58017;SDS011;43810;50.860;19.226;2022-09-02T09:22:27;2.13;;;0.50;;
58017;SDS011;43810;50.860;19.226;2022-09-02T09:24:54;3.58;;;1.00;;
58017;SDS011;43810;50.860;19.226;2022-09-02T09:27:21;1.17;;;0.70;;
58017;SDS011;43810;50.860;19.226;2022-09-02T09:29:50;2.03;;;0.57;;
58017;SDS011;43810;50.860;19.226;2022-09-02T09:32:27;2.45;;;0.55;;
58017;SDS011;43810;50.860;19.226;2022-09-02T09:34:58;2.08;;;0.50;;
58017;SDS011;43810;50.860;19.226;2022-09-02T09:37:30;0.63;;;0.45;;
58017;SDS011;43810;50.860;19.226;2022-09-02T09:39:56;2.05;;;0.73;;
58017;SDS011;43810;50.860;19.226;2022-09-02T09:42:34;1.70;;;0.60;;
58017;SDS011;43810;50.860;19.226;2022-09-02T09:45:14;0.80;;;0.50;;
58017;SDS011;43810;50.860;19.226;2022-09-02T09:47:40;1.63;;;0.40;;
58017;SDS011;43810;50.860;19.226;2022-09-02T09:50:11;0.73;;;0.55;;
58017;SDS011;43810;50.860;19.226;2022-09-02T09:52:37;0.80;;;0.32;;
58017;SDS011;43810;50.860;19.226;2022-09-02T09:57:31;3.70;;;0.80;;
58017;SDS011;43810;50.860;19.226;2022-09-02T09:59:56;2.20;;;0.50;;
58017;SDS011;43810;50.860;19.226;2022-09-02T10:02:23;1.60;;;0.60;;
58017;SDS011;43810;50.860;19.226;2022-09-02T10:04:51;3.38;;;0.65;;
58017;SDS011;43810;50.860;19.226;2022-09-02T10:10:07;0.65;;;0.43;;
58017;SDS011;43810;50.860;19.226;2022-09-02T10:12:33;1.50;;;0.40;;
58017;SDS011;43810;50.860;19.226;2022-09-02T10:14:59;5.88;;;0.93;;
58017;SDS011;43810;50.860;19.226;2022-09-02T10:22:43;1.77;;;0.88;;
58017;SDS011;43810;50.860;19.226;2022-09-02T10:32:42;1.40;;;0.40;;
58017;SDS011;43810;50.860;19.226;2022-09-02T10:35:20;0.68;;;0.60;;
58017;SDS011;43810;50.860;19.226;2022-09-02T10:40:15;1.95;;;0.47;;
58017;SDS011;43810;50.860;19.226;2022-09-02T10:43:00;1.15;;;0.68;;
58017;SDS011;43810;50.860;19.226;2022-09-02T10:45:36;3.15;;;0.40;;
58017;SDS011;43810;50.860;19.226;2022-09-02T10:53:38;8.63;;;0.93;;
58017;SDS011;43810;50.860;19.226;2022-09-02T10:56:23;0.73;;;0.45;;
58017;SDS011;43810;50.860;19.226;2022-09-02T10:58:56;1.10;;;0.43;;
58017;SDS011;43810;50.860;19.226;2022-09-02T11:01:24;1.52;;;0.52;;
58017;SDS011;43810;50.860;19.226;2022-09-02T11:03:59;0.82;;;0.52;;
58017;SDS011;43810;50.860;19.226;2022-09-02T11:06:28;1.00;;;0.75;;
58017;SDS011;43810;50.860;19.226;2022-09-02T11:08:59;0.75;;;0.45;;
58017;SDS011;43810;50.860;19.226;2022-09-02T11:11:29;0.68;;;0.52;;
58017;SDS011;43810;50.860;19.226;2022-09-02T11:16:36;2.47;;;0.55;;
58017;SDS011;43810;50.860;19.226;2022-09-02T11:24:14;0.50;;;0.40;;
58017;SDS011;43810;50.860;19.226;2022-09-02T11:32:16;1.42;;;0.98;;
58017;SDS011;43810;50.860;19.226;2022-09-02T11:34:47;3.22;;;0.73;;
58017;SDS011;43810;50.860;19.226;2022-09-02T11:40:12;2.05;;;0.90;;
58017;SDS011;43810;50.860;19.226;2022-09-02T11:42:46;2.55;;;0.60;;
58017;SDS011;43810;50.860;19.226;2022-09-02T11:53:14;2.88;;;0.70;;
58017;SDS011;43810;50.860;19.226;2022-09-02T11:55:52;1.77;;;0.50;;
58017;SDS011;43810;50.860;19.226;2022-09-02T11:58:34;2.15;;;0.40;;
58017;SDS011;43810;50.860;19.226;2022-09-02T12:03:27;2.20;;;0.95;;
58017;SDS011;43810;50.860;19.226;2022-09-02T12:06:07;4.30;;;1.17;;
58017;SDS011;43810;50.860;19.226;2022-09-02T12:11:04;8.43;;;1.60;;
58017;SDS011;43810;50.860;19.226;2022-09-02T12:13:44;3.78;;;1.20;;
58017;SDS011;43810;50.860;19.226;2022-09-02T12:21:19;1.17;;;0.55;;
58017;SDS011;43810;50.860;19.226;2022-09-02T12:26:17;1.45;;;0.70;;
58017;SDS011;43810;50.860;19.226;2022-09-02T12:28:44;3.00;;;0.70;;
58017;SDS011;43810;50.860;19.226;2022-09-02T12:33:57;1.48;;;0.80;;
58017;SDS011;43810;50.860;19.226;2022-09-02T12:41:45;0.75;;;0.55;;
58017;SDS011;43810;50.860;19.226;2022-09-02T12:44:19;4.70;;;0.75;;
58017;SDS011;43810;50.860;19.226;2022-09-02T12:46:49;12.02;;;1.33;;
58017;SDS011;43810;50.860;19.226;2022-09-02T12:51:59;1.75;;;0.40;;
58017;SDS011;43810;50.860;19.226;2022-09-02T12:57:07;0.57;;;0.47;;
58017;SDS011;43810;50.860;19.226;2022-09-02T12:59:34;0.65;;;0.32;;
58017;SDS011;43810;50.860;19.226;2022-09-02T13:02:03;1.08;;;0.60;;
58017;SDS011;43810;50.860;19.226;2022-09-02T13:14:53;1.13;;;0.38;;
58017;SDS011;43810;50.860;19.226;2022-09-02T13:17:25;0.70;;;0.50;;
58017;SDS011;43810;50.860;19.226;2022-09-02T13:33:16;0.60;;;0.40;;
58017;SDS011;43810;50.860;19.226;2022-09-02T13:35:41;1.58;;;0.85;;
58017;SDS011;43810;50.860;19.226;2022-09-02T13:38:08;4.43;;;0.40;;
58017;SDS011;43810;50.860;19.226;2022-09-02T13:40:35;0.50;;;0.43;;
58017;SDS011;43810;50.860;19.226;2022-09-02T13:43:02;2.95;;;0.65;;
58017;SDS011;43810;50.860;19.226;2022-09-02T13:45:29;0.60;;;0.50;;
58017;SDS011;43810;50.860;19.226;2022-09-02T13:47:57;0.98;;;0.60;;
58017;SDS011;43810;50.860;19.226;2022-09-02T13:50:24;3.63;;;0.50;;
58017;SDS011;43810;50.860;19.226;2022-09-02T13:52:52;3.58;;;1.13;;
58017;SDS011;43810;50.860;19.226;2022-09-02T13:55:19;1.40;;;0.60;;
58017;SDS011;43810;50.860;19.226;2022-09-02T13:57:46;0.47;;;0.40;;
58017;SDS011;43810;50.860;19.226;2022-09-02T14:00:13;0.47;;;0.30;;
58017;SDS011;43810;50.860;19.226;2022-09-02T14:02:40;6.25;;;0.82;;
58017;SDS011;43810;50.860;19.226;2022-09-02T14:05:08;2.03;;;0.63;;
58017;SDS011;43810;50.860;19.226;2022-09-02T14:07:40;1.90;;;0.30;;
58017;SDS011;43810;50.860;19.226;2022-09-02T14:10:06;0.35;;;0.35;;
58017;SDS011;43810;50.860;19.226;2022-09-02T14:12:33;4.65;;;0.63;;
58017;SDS011;43810;50.860;19.226;2022-09-02T14:15:00;1.15;;;0.50;;
58017;SDS011;43810;50.860;19.226;2022-09-02T14:17:26;2.80;;;0.75;;
58017;SDS011;43810;50.860;19.226;2022-09-02T14:20:06;0.73;;;0.40;;
58017;SDS011;43810;50.860;19.226;2022-09-02T14:22:33;5.15;;;0.80;;
58017;SDS011;43810;50.860;19.226;2022-09-02T14:25:06;0.60;;;0.47;;
58017;SDS011;43810;50.860;19.226;2022-09-02T14:27:31;1.60;;;0.60;;
58017;SDS011;43810;50.860;19.226;2022-09-02T14:29:57;2.42;;;0.50;;
58017;SDS011;43810;50.860;19.226;2022-09-02T14:32:23;1.50;;;0.55;;
58017;SDS011;43810;50.860;19.226;2022-09-02T14:37:35;0.70;;;0.60;;
58017;SDS011;43810;50.860;19.226;2022-09-02T14:40:11;4.25;;;0.80;;
58017;SDS011;43810;50.860;19.226;2022-09-02T14:42:50;2.35;;;0.57;;
58017;SDS011;43810;50.860;19.226;2022-09-02T14:47:51;1.00;;;0.50;;
58017;SDS011;43810;50.860;19.226;2022-09-02T14:50:17;0.90;;;0.60;;
58017;SDS011;43810;50.860;19.226;2022-09-02T14:52:44;0.70;;;0.50;;
58017;SDS011;43810;50.860;19.226;2022-09-02T14:58:17;1.40;;;0.68;;
58017;SDS011;43810;50.860;19.226;2022-09-02T15:00:44;1.05;;;0.80;;
58017;SDS011;43810;50.860;19.226;2022-09-02T15:03:11;0.82;;;0.60;;
58017;SDS011;43810;50.860;19.226;2022-09-02T15:05:37;0.57;;;0.57;;
58017;SDS011;43810;50.860;19.226;2022-09-02T15:08:03;1.67;;;0.63;;
58017;SDS011;43810;50.860;19.226;2022-09-02T15:10:28;1.40;;;0.63;;
58017;SDS011;43810;50.860;19.226;2022-09-02T15:12:55;2.20;;;0.85;;
58017;SDS011;43810;50.860;19.226;2022-09-02T15:15:24;2.00;;;0.85;;
58017;SDS011;43810;50.860;19.226;2022-09-02T15:17:51;0.57;;;0.47;;
58017;SDS011;43810;50.860;19.226;2022-09-02T15:20:16;1.70;;;0.40;;
58017;SDS011;43810;50.860;19.226;2022-09-02T15:22:42;5.93;;;0.90;;
58017;SDS011;43810;50.860;19.226;2022-09-02T15:25:08;2.17;;;0.80;;
58017;SDS011;43810;50.860;19.226;2022-09-02T15:27:34;5.22;;;0.90;;
58017;SDS011;43810;50.860;19.226;2022-09-02T15:30:00;1.70;;;0.73;;
58017;SDS011;43810;50.860;19.226;2022-09-02T15:32:26;3.53;;;0.80;;
58017;SDS011;43810;50.860;19.226;2022-09-02T15:34:52;1.15;;;0.50;;
58017;SDS011;43810;50.860;19.226;2022-09-02T15:37:17;1.30;;;0.43;;
58017;SDS011;43810;50.860;19.226;2022-09-02T15:39:43;0.95;;;0.57;;
58017;SDS011;43810;50.860;19.226;2022-09-02T15:42:08;3.85;;;0.82;;
58017;SDS011;43810;50.860;19.226;2022-09-02T15:44:34;2.92;;;0.50;;
58017;SDS011;43810;50.860;19.226;2022-09-02T15:47:00;0.98;;;0.50;;
58017;SDS011;43810;50.860;19.226;2022-09-02T15:49:25;1.50;;;0.60;;
58017;SDS011;43810;50.860;19.226;2022-09-02T15:51:52;2.00;;;0.60;;
58017;SDS011;43810;50.860;19.226;2022-09-02T15:54:19;2.78;;;0.70;;
58017;SDS011;43810;50.860;19.226;2022-09-02T15:56:45;1.05;;;0.82;;
58017;SDS011;43810;50.860;19.226;2022-09-02T16:01:38;1.27;;;0.90;;
58017;SDS011;43810;50.860;19.226;2022-09-02T16:04:05;1.30;;;0.88;;
58017;SDS011;43810;50.860;19.226;2022-09-02T16:06:32;4.25;;;1.00;;
58017;SDS011;43810;50.860;19.226;2022-09-02T16:08:57;4.22;;;0.80;;
58017;SDS011;43810;50.860;19.226;2022-09-02T16:11:23;4.07;;;0.70;;
58017;SDS011;43810;50.860;19.226;2022-09-02T16:13:49;3.65;;;0.82;;
58017;SDS011;43810;50.860;19.226;2022-09-02T16:16:15;1.52;;;0.88;;
58017;SDS011;43810;50.860;19.226;2022-09-02T16:18:41;2.42;;;1.23;;
58017;SDS011;43810;50.860;19.226;2022-09-02T16:21:08;2.25;;;1.17;;
58017;SDS011;43810;50.860;19.226;2022-09-02T16:23:34;1.83;;;1.15;;
58017;SDS011;43810;50.860;19.226;2022-09-02T16:26:20;8.52;;;1.23;;
58017;SDS011;43810;50.860;19.226;2022-09-02T16:28:47;7.88;;;1.48;;
58017;SDS011;43810;50.860;19.226;2022-09-02T16:31:13;5.90;;;1.25;;
58017;SDS011;43810;50.860;19.226;2022-09-02T16:33:41;3.03;;;1.10;;
58017;SDS011;43810;50.860;19.226;2022-09-02T16:36:08;7.38;;;2.90;;
58017;SDS011;43810;50.860;19.226;2022-09-02T16:38:34;9.90;;;3.90;;
58017;SDS011;43810;50.860;19.226;2022-09-02T16:41:00;19.58;;;6.13;;
58017;SDS011;43810;50.860;19.226;2022-09-02T16:43:25;14.35;;;5.57;;